Time;durP1;ratioP1;P1;durP2;ratioP2;P2;SDS_P1;SDS_P2;PMS_P1;PMS_P2;Temp;Humidity;BMP_temperature;BMP_pressure;BME280_temperature;BME280_humidity;BME280_pressure;Samples;Min_cycle;Max_cycle;Signal;HPM_P1;HPM_P2
2022/04/09 00:00:24;;;;;;;0.00;0.00;;;;;;;;;;6154119;23;20009;-56
2022/04/09 00:02:50;;;;;;;0.00;0.00;;;;;;;;;;6153504;23;20001;-56
2022/04/09 00:05:15;;;;;;;0.00;0.00;;;;;;;;;;6153147;23;20010;-57
2022/04/09 00:07:40;;;;;;;0.00;0.00;;;;;;;;;;6152953;23;20006;-53
2022/04/09 00:10:06;;;;;;;0.80;0.38;;;;;;;;;;6153746;23;20006;-54
2022/04/09 00:12:32;;;;;;;0.00;0.00;;;;;;;;;;6153751;23;20006;-54
2022/04/09 00:14:57;;;;;;;0.00;0.00;;;;;;;;;;6152925;23;20052;-54
2022/04/09 00:17:22;;;;;;;0.00;0.00;;;;;;;;;;6151467;23;20006;-57
2022/04/09 00:19:48;;;;;;;0.03;0.03;;;;;;;;;;6150458;23;20002;-58
2022/04/09 00:22:13;;;;;;;0.00;0.00;;;;;;;;;;6151177;23;20375;-57
2022/04/09 00:24:39;;;;;;;1.98;1.48;;;;;;;;;;6151190;23;20132;-57
2022/04/09 00:27:04;;;;;;;0.00;0.00;;;;;;;;;;6151375;23;20001;-56
2022/04/09 00:29:29;;;;;;;0.00;0.00;;;;;;;;;;6150870;23;20541;-58
2022/04/09 00:31:54;;;;;;;0.17;0.17;;;;;;;;;;6149959;23;20004;-57
2022/04/09 00:34:19;;;;;;;0.00;0.00;;;;;;;;;;6150816;23;20002;-58
2022/04/09 00:36:45;;;;;;;0.00;0.00;;;;;;;;;;6150663;23;20012;-58
2022/04/09 00:39:10;;;;;;;0.00;0.00;;;;;;;;;;6151352;23;20012;-58
2022/04/09 00:41:38;;;;;;;0.00;0.00;;;;;;;;;;6151103;23;20001;-58
2022/04/09 00:44:06;;;;;;;0.00;0.00;;;;;;;;;;6150184;23;20080;-57
2022/04/09 00:46:31;;;;;;;0.00;0.00;;;;;;;;;;6151178;23;20012;-57
2022/04/09 00:48:56;;;;;;;0.00;0.00;;;;;;;;;;6150175;23;20367;-58
2022/04/09 00:51:22;;;;;;;0.00;0.00;;;;;;;;;;6151817;23;20000;-60
2022/04/09 00:53:48;;;;;;;0.00;0.00;;;;;;;;;;6152075;23;20454;-59
2022/04/09 00:56:16;;;;;;;0.00;0.00;;;;;;;;;;6152536;23;20024;-59
2022/04/09 00:58:53;;;;;;;0.00;0.00;;;;;;;;;;6152011;23;20075;-59
2022/04/09 01:01:19;;;;;;;0.00;0.00;;;;;;;;;;6152120;23;19998;-60
2022/04/09 01:03:44;;;;;;;0.00;0.00;;;;;;;;;;6151827;23;20002;-60
2022/04/09 01:06:11;;;;;;;0.00;0.00;;;;;;;;;;6152126;23;20005;-60
2022/04/09 01:08:36;;;;;;;0.00;0.00;;;;;;;;;;6151846;23;20116;-59
2022/04/09 01:11:01;;;;;;;0.00;0.00;;;;;;;;;;6150637;23;20431;-59
2022/04/09 01:13:27;;;;;;;0.32;0.32;;;;;;;;;;6151114;23;20008;-59
2022/04/09 01:15:52;;;;;;;0.25;0.25;;;;;;;;;;6150844;23;20028;-59
2022/04/09 01:18:18;;;;;;;0.00;0.00;;;;;;;;;;6151474;23;19998;-59
2022/04/09 01:20:43;;;;;;;0.00;0.00;;;;;;;;;;6151268;23;20008;-59
2022/04/09 01:23:08;;;;;;;0.00;0.00;;;;;;;;;;6151425;23;20081;-58
2022/04/09 01:25:33;;;;;;;0.00;0.00;;;;;;;;;;6151053;23;20427;-58
2022/04/09 01:27:59;;;;;;;0.00;0.00;;;;;;;;;;6151328;23;20008;-58
2022/04/09 01:30:24;;;;;;;0.00;0.00;;;;;;;;;;6152674;23;20001;-58
2022/04/09 01:32:49;;;;;;;0.00;0.00;;;;;;;;;;6152615;23;20001;-58
2022/04/09 01:35:14;;;;;;;0.00;0.00;;;;;;;;;;6153280;23;20011;-59
2022/04/09 01:37:40;;;;;;;0.00;0.00;;;;;;;;;;6153259;23;20096;-57
2022/04/09 01:40:05;;;;;;;0.00;0.00;;;;;;;;;;6152949;23;20005;-57
2022/04/09 01:42:30;;;;;;;0.00;0.00;;;;;;;;;;6153000;23;20016;-58
2022/04/09 01:44:56;;;;;;;0.00;0.00;;;;;;;;;;6151996;23;20005;-57
2022/04/09 01:47:21;;;;;;;0.00;0.00;;;;;;;;;;6153206;23;20074;-58
2022/04/09 01:49:47;;;;;;;0.00;0.00;;;;;;;;;;6152833;23;19993;-60
2022/04/09 01:52:12;;;;;;;2.20;2.20;;;;;;;;;;6153084;23;19998;-58
2022/04/09 01:54:37;;;;;;;0.00;0.00;;;;;;;;;;6152785;23;19998;-58
2022/04/09 01:57:03;;;;;;;0.00;0.00;;;;;;;;;;6152059;23;20013;-59
2022/04/09 01:59:28;;;;;;;0.00;0.00;;;;;;;;;;6152466;23;20008;-58
2022/04/09 02:01:53;;;;;;;0.00;0.00;;;;;;;;;;6152645;23;20002;-58
2022/04/09 02:04:18;;;;;;;0.00;0.00;;;;;;;;;;6152782;23;20096;-58
2022/04/09 02:06:44;;;;;;;0.00;0.00;;;;;;;;;;6152531;23;20000;-59
2022/04/09 02:09:12;;;;;;;0.08;0.08;;;;;;;;;;6153202;23;20344;-59
2022/04/09 02:11:39;;;;;;;0.00;0.00;;;;;;;;;;6152884;23;19994;-59
2022/04/09 02:14:05;;;;;;;0.00;0.00;;;;;;;;;;6152090;23;20108;-59
2022/04/09 02:16:30;;;;;;;0.00;0.00;;;;;;;;;;6153367;23;20037;-59
2022/04/09 02:18:55;;;;;;;0.00;0.00;;;;;;;;;;6152561;23;20001;-59
2022/04/09 02:21:21;;;;;;;0.00;0.00;;;;;;;;;;6152895;23;20081;-59
2022/04/09 02:23:46;;;;;;;0.00;0.00;;;;;;;;;;6152040;23;20073;-59
2022/04/09 02:26:11;;;;;;;0.00;0.00;;;;;;;;;;6152196;23;20036;-59
2022/04/09 02:28:36;;;;;;;0.00;0.00;;;;;;;;;;6152340;23;20399;-60
2022/04/09 02:31:02;;;;;;;0.00;0.00;;;;;;;;;;6152534;23;20028;-60
2022/04/09 02:33:27;;;;;;;0.00;0.00;;;;;;;;;;6154288;23;19997;-55
2022/04/09 02:35:52;;;;;;;0.00;0.00;;;;;;;;;;6156083;23;20005;-57
2022/04/09 02:38:17;;;;;;;0.00;0.00;;;;;;;;;;6156298;23;19998;-57
2022/04/09 02:40:43;;;;;;;0.00;0.00;;;;;;;;;;6155856;23;20005;-56
2022/04/09 02:43:10;;;;;;;0.00;0.00;;;;;;;;;;6155371;23;20486;-55
2022/04/09 02:45:35;;;;;;;0.00;0.00;;;;;;;;;;6155558;23;20338;-55
2022/04/09 02:48:00;;;;;;;0.00;0.00;;;;;;;;;;6155764;23;20040;-55
2022/04/09 02:50:25;;;;;;;0.00;0.00;;;;;;;;;;6155514;23;20076;-57
2022/04/09 02:52:51;;;;;;;0.00;0.00;;;;;;;;;;6155140;23;20008;-55
2022/04/09 02:55:16;;;;;;;0.00;0.00;;;;;;;;;;6154913;23;20014;-52
2022/04/09 02:57:41;;;;;;;0.00;0.00;;;;;;;;;;6155488;23;20008;-55
2022/04/09 03:00:08;;;;;;;0.00;0.00;;;;;;;;;;6155405;23;20001;-55
2022/04/09 03:02:36;;;;;;;0.15;0.15;;;;;;;;;;6155975;23;19998;-54
2022/04/09 03:05:01;;;;;;;0.00;0.00;;;;;;;;;;6155960;23;20005;-54
2022/04/09 03:07:28;;;;;;;0.20;0.20;;;;;;;;;;6155520;23;20028;-54
2022/04/09 03:09:53;;;;;;;0.00;0.00;;;;;;;;;;6154764;23;19993;-55
2022/04/09 03:12:18;;;;;;;0.00;0.00;;;;;;;;;;6155299;23;19998;-54
2022/04/09 03:14:44;;;;;;;0.00;0.00;;;;;;;;;;6155025;23;20005;-54
2022/04/09 03:17:10;;;;;;;0.00;0.00;;;;;;;;;;6154681;23;20005;-56
2022/04/09 03:19:35;;;;;;;0.00;0.00;;;;;;;;;;6154553;23;20010;-57
2022/04/09 03:22:00;;;;;;;0.55;0.22;;;;;;;;;;6154637;23;20009;-54
2022/04/09 03:24:25;;;;;;;0.00;0.00;;;;;;;;;;6154908;23;20001;-55
2022/04/09 03:26:51;;;;;;;0.00;0.00;;;;;;;;;;6155381;23;20280;-54
2022/04/09 03:29:16;;;;;;;0.00;0.00;;;;;;;;;;6154836;23;20014;-55
2022/04/09 03:31:41;;;;;;;0.10;0.10;;;;;;;;;;6155241;23;20101;-56
2022/04/09 03:34:06;;;;;;;0.00;0.00;;;;;;;;;;6154697;23;20375;-55
2022/04/09 03:36:31;;;;;;;0.00;0.00;;;;;;;;;;6155084;23;20006;-55
2022/04/09 03:38:57;;;;;;;0.20;0.20;;;;;;;;;;6154423;23;19994;-57
2022/04/09 03:41:22;;;;;;;0.45;0.45;;;;;;;;;;6154422;23;20048;-55
2022/04/09 03:43:49;;;;;;;3.50;2.80;;;;;;;;;;6154476;23;19997;-57
2022/04/09 03:46:15;;;;;;;0.00;0.00;;;;;;;;;;6154374;23;20051;-54
2022/04/09 03:48:41;;;;;;;0.60;0.60;;;;;;;;;;6154709;23;19997;-56
2022/04/09 03:51:06;;;;;;;0.30;0.20;;;;;;;;;;6154183;23;19994;-57
2022/04/09 03:53:32;;;;;;;0.00;0.00;;;;;;;;;;6154311;23;19997;-55
2022/04/09 03:55:57;;;;;;;0.00;0.00;;;;;;;;;;6153851;23;20028;-55
2022/04/09 03:58:23;;;;;;;0.30;0.30;;;;;;;;;;6154256;23;20028;-57
2022/04/09 04:00:48;;;;;;;0.00;0.00;;;;;;;;;;6154563;23;20006;-55
2022/04/09 04:03:14;;;;;;;0.00;0.00;;;;;;;;;;6154570;23;20025;-55
2022/04/09 04:05:40;;;;;;;0.00;0.00;;;;;;;;;;6154499;23;20005;-55
2022/04/09 04:08:05;;;;;;;0.00;0.00;;;;;;;;;;6154141;23;20009;-56
2022/04/09 04:10:32;;;;;;;0.00;0.00;;;;;;;;;;6154274;23;20009;-54
2022/04/09 04:12:57;;;;;;;0.00;0.00;;;;;;;;;;6154402;23;19997;-57
2022/04/09 04:15:22;;;;;;;0.00;0.00;;;;;;;;;;6154344;23;20467;-55
2022/04/09 04:17:49;;;;;;;0.00;0.00;;;;;;;;;;6154207;23;20490;-53
2022/04/09 04:20:14;;;;;;;0.00;0.00;;;;;;;;;;6128118;23;20012;-54
2022/04/09 04:22:40;;;;;;;0.00;0.00;;;;;;;;;;6154020;23;20382;-55
2022/04/09 04:25:05;;;;;;;0.00;0.00;;;;;;;;;;6153618;23;20483;-57
2022/04/09 04:27:30;;;;;;;0.00;0.00;;;;;;;;;;6154209;23;20014;-57
2022/04/09 04:29:59;;;;;;;0.00;0.00;;;;;;;;;;6154218;23;19998;-55
2022/04/09 04:32:25;;;;;;;0.00;0.00;;;;;;;;;;6153889;23;19994;-56
2022/04/09 04:34:50;;;;;;;0.00;0.00;;;;;;;;;;6153827;23;20005;-54
2022/04/09 04:37:15;;;;;;;0.00;0.00;;;;;;;;;;6154285;23;20005;-53
2022/04/09 04:39:40;;;;;;;0.00;0.00;;;;;;;;;;6127919;23;20060;-55
2022/04/09 04:42:07;;;;;;;0.00;0.00;;;;;;;;;;6153917;23;20009;-55
2022/04/09 04:44:32;;;;;;;0.00;0.00;;;;;;;;;;6153881;23;20002;-54
2022/04/09 04:46:58;;;;;;;0.00;0.00;;;;;;;;;;6154083;23;20000;-55
2022/04/09 04:49:23;;;;;;;0.13;0.13;;;;;;;;;;6154142;23;19994;-53
2022/04/09 04:51:48;;;;;;;10.50;0.90;;;;;;;;;;6153715;23;19998;-56
2022/04/09 04:54:13;;;;;;;0.10;0.10;;;;;;;;;;6153454;23;20001;-56
2022/04/09 04:56:38;;;;;;;0.00;0.00;;;;;;;;;;6153794;23;20009;-54
2022/04/09 04:59:04;;;;;;;0.00;0.00;;;;;;;;;;6153995;23;20431;-57
2022/04/09 05:01:29;;;;;;;0.00;0.00;;;;;;;;;;6154063;23;20001;-56
2022/04/09 05:03:54;;;;;;;0.00;0.00;;;;;;;;;;6157249;23;19989;-55
2022/04/09 05:06:20;;;;;;;0.00;0.00;;;;;;;;;;6157546;23;20002;-56
2022/04/09 05:08:45;;;;;;;0.00;0.00;;;;;;;;;;6131065;23;20005;-53
2022/04/09 05:11:11;;;;;;;0.00;0.00;;;;;;;;;;6157345;23;20390;-56
2022/04/09 05:13:36;;;;;;;0.00;0.00;;;;;;;;;;6157471;23;20028;-55
2022/04/09 05:16:01;;;;;;;0.00;0.00;;;;;;;;;;6156614;23;20080;-56
2022/04/09 05:18:27;;;;;;;0.00;0.00;;;;;;;;;;6157317;23;20067;-55
2022/04/09 05:20:52;;;;;;;0.00;0.00;;;;;;;;;;6156991;23;20072;-55
2022/04/09 05:23:17;;;;;;;0.00;0.00;;;;;;;;;;6156597;23;20020;-55
2022/04/09 05:25:42;;;;;;;0.00;0.00;;;;;;;;;;6156743;23;20005;-56
2022/04/09 05:28:10;;;;;;;0.00;0.00;;;;;;;;;;6157045;23;20001;-56
2022/04/09 05:30:36;;;;;;;0.00;0.00;;;;;;;;;;6157061;23;20008;-55
2022/04/09 05:33:03;;;;;;;0.00;0.00;;;;;;;;;;6156931;23;20029;-55
2022/04/09 05:35:28;;;;;;;0.00;0.00;;;;;;;;;;6157427;23;20006;-54
2022/04/09 05:37:53;;;;;;;0.00;0.00;;;;;;;;;;6157080;23;20073;-55
2022/04/09 05:40:19;;;;;;;0.00;0.00;;;;;;;;;;6156954;23;20025;-56
2022/04/09 05:42:44;;;;;;;0.00;0.00;;;;;;;;;;6157316;23;20049;-53
2022/04/09 05:45:10;;;;;;;0.00;0.00;;;;;;;;;;6156929;23;20347;-54
2022/04/09 05:47:42;;;;;;;0.00;0.00;;;;;;;;;;6157120;23;19994;-54
2022/04/09 05:50:09;;;;;;;0.00;0.00;;;;;;;;;;6157482;23;20420;-56
2022/04/09 05:52:34;;;;;;;0.00;0.00;;;;;;;;;;6156908;23;19993;-55
2022/04/09 05:54:59;;;;;;;0.00;0.00;;;;;;;;;;6156368;23;20092;-57
2022/04/09 05:57:24;;;;;;;0.00;0.00;;;;;;;;;;6156952;23;20013;-57
2022/04/09 05:59:50;;;;;;;0.00;0.00;;;;;;;;;;6157013;23;20008;-56
2022/04/09 06:02:15;;;;;;;0.00;0.00;;;;;;;;;;6157019;23;20005;-56
2022/04/09 06:04:40;;;;;;;0.00;0.00;;;;;;;;;;6156456;23;20387;-56
2022/04/09 06:07:05;;;;;;;0.00;0.00;;;;;;;;;;6156969;23;20335;-55
2022/04/09 06:09:31;;;;;;;0.00;0.00;;;;;;;;;;6156433;23;20297;-57
2022/04/09 06:11:56;;;;;;;0.45;0.45;;;;;;;;;;6156693;23;20056;-56
2022/04/09 06:14:21;;;;;;;0.00;0.00;;;;;;;;;;6129270;23;20053;-56
2022/04/09 06:16:46;;;;;;;0.00;0.00;;;;;;;;;;6155445;23;20312;-56
2022/04/09 06:19:12;;;;;;;0.10;0.10;;;;;;;;;;6155509;23;20000;-56
2022/04/09 06:21:37;;;;;;;0.00;0.00;;;;;;;;;;6155882;23;19994;-55
2022/04/09 06:24:02;;;;;;;0.52;0.52;;;;;;;;;;6155114;23;20659;-57
2022/04/09 06:26:28;;;;;;;8.85;1.38;;;;;;;;;;6155491;23;20001;-56
2022/04/09 06:28:53;;;;;;;0.10;0.10;;;;;;;;;;6155124;23;20005;-56
2022/04/09 06:31:19;;;;;;;0.17;0.17;;;;;;;;;;6155481;23;20036;-57
2022/04/09 06:33:44;;;;;;;0.00;0.00;;;;;;;;;;6155456;23;19994;-56
2022/04/09 06:36:09;;;;;;;0.00;0.00;;;;;;;;;;6155525;23;20006;-55
2022/04/09 06:38:34;;;;;;;0.50;0.50;;;;;;;;;;6155577;23;20002;-56
2022/04/09 06:41:00;;;;;;;0.00;0.00;;;;;;;;;;6155115;23;20033;-57
2022/04/09 06:43:26;;;;;;;1.23;1.23;;;;;;;;;;6155646;23;20001;-55
2022/04/09 06:45:51;;;;;;;0.00;0.00;;;;;;;;;;6155254;23;20431;-56
2022/04/09 06:48:16;;;;;;;2.28;1.02;;;;;;;;;;6155234;23;19993;-56
2022/04/09 06:50:42;;;;;;;0.10;0.10;;;;;;;;;;6155510;23;20002;-56
2022/04/09 06:53:07;;;;;;;0.77;0.77;;;;;;;;;;6155475;23;20002;-56
2022/04/09 06:55:32;;;;;;;0.00;0.00;;;;;;;;;;6155178;23;20020;-57
2022/04/09 06:58:03;;;;;;;0.20;0.20;;;;;;;;;;6153888;23;20008;-57
2022/04/09 07:00:29;;;;;;;1.08;1.08;;;;;;;;;;6154833;23;20001;-56
2022/04/09 07:02:54;;;;;;;0.65;0.65;;;;;;;;;;6155318;23;20025;-57
2022/04/09 07:05:20;;;;;;;0.85;0.68;;;;;;;;;;6155006;23;20060;-56
2022/04/09 07:07:48;;;;;;;0.13;0.13;;;;;;;;;;6154980;23;20001;-56
2022/04/09 07:10:13;;;;;;;4.22;1.55;;;;;;;;;;6154448;23;20007;-56
2022/04/09 07:12:39;;;;;;;0.63;0.22;;;;;;;;;;6155098;23;20017;-57
2022/04/09 07:15:04;;;;;;;0.43;0.43;;;;;;;;;;6154819;23;20026;-56
2022/04/09 07:17:30;;;;;;;0.00;0.00;;;;;;;;;;6155430;23;20079;-57
2022/04/09 07:20:03;;;;;;;0.43;0.43;;;;;;;;;;6155106;23;20077;-58
2022/04/09 07:22:28;;;;;;;0.10;0.10;;;;;;;;;;6155024;23;20001;-56
2022/04/09 07:24:55;;;;;;;0.00;0.00;;;;;;;;;;6128106;23;20458;-57
2022/04/09 07:27:20;;;;;;;0.70;0.70;;;;;;;;;;6154590;23;20028;-57
2022/04/09 07:29:46;;;;;;;1.75;0.10;;;;;;;;;;6155298;23;19997;-54
2022/04/09 07:32:12;;;;;;;0.22;0.22;;;;;;;;;;6155089;23;20001;-56
2022/04/09 07:34:37;;;;;;;1.08;1.08;;;;;;;;;;6128671;23;20024;-57
2022/04/09 07:37:03;;;;;;;0.00;0.00;;;;;;;;;;6154868;23;20498;-56
2022/04/09 07:39:29;;;;;;;0.00;0.00;;;;;;;;;;6155196;23;20009;-57
2022/04/09 07:41:54;;;;;;;0.00;0.00;;;;;;;;;;6154960;23;20009;-57
2022/04/09 07:44:19;;;;;;;0.00;0.00;;;;;;;;;;6154989;23;20348;-57
2022/04/09 07:46:45;;;;;;;0.00;0.00;;;;;;;;;;6155461;23;20053;-56
2022/04/09 07:49:10;;;;;;;0.00;0.00;;;;;;;;;;6155454;23;19994;-56
2022/04/09 07:51:35;;;;;;;0.00;0.00;;;;;;;;;;6155543;23;20001;-55
2022/04/09 07:54:01;;;;;;;0.20;0.20;;;;;;;;;;6155330;23;20005;-54
2022/04/09 07:56:26;;;;;;;0.00;0.00;;;;;;;;;;6154910;23;20156;-56
2022/04/09 07:58:51;;;;;;;0.00;0.00;;;;;;;;;;6155167;23;20010;-56
2022/04/09 08:01:16;;;;;;;0.00;0.00;;;;;;;;;;6154912;23;20420;-56
2022/04/09 08:03:42;;;;;;;0.00;0.00;;;;;;;;;;6155149;23;20024;-57
2022/04/09 08:06:07;;;;;;;0.00;0.00;;;;;;;;;;6154927;23;20319;-55
2022/04/09 08:08:32;;;;;;;0.95;0.95;;;;;;;;;;6154944;23;19997;-57
2022/04/09 08:10:57;;;;;;;0.68;0.52;;;;;;;;;;6154729;23;20008;-58
2022/04/09 08:13:23;;;;;;;0.60;0.60;;;;;;;;;;6154855;23;19993;-56
2022/04/09 08:15:48;;;;;;;0.10;0.10;;;;;;;;;;6154973;23;19997;-56
2022/04/09 08:18:13;;;;;;;0.00;0.00;;;;;;;;;;6155211;23;20012;-56
2022/04/09 08:20:39;;;;;;;0.00;0.00;;;;;;;;;;6155094;23;20084;-57
2022/04/09 08:23:04;;;;;;;0.55;0.55;;;;;;;;;;6154897;23;20085;-56
2022/04/09 08:25:30;;;;;;;0.00;0.00;;;;;;;;;;6155005;23;20005;-57
2022/04/09 08:27:55;;;;;;;0.30;0.30;;;;;;;;;;6154949;23;20036;-57
2022/04/09 08:30:21;;;;;;;0.00;0.00;;;;;;;;;;6154911;23;19998;-56
2022/04/09 08:32:49;;;;;;;0.55;0.28;;;;;;;;;;6155024;23;19993;-57
2022/04/09 08:35:14;;;;;;;0.70;0.70;;;;;;;;;;6154894;23;20005;-57
2022/04/09 08:37:40;;;;;;;0.00;0.00;;;;;;;;;;6154426;23;20827;-57
2022/04/09 08:40:05;;;;;;;0.52;0.52;;;;;;;;;;6154980;23;20008;-56
2022/04/09 08:42:31;;;;;;;0.32;0.32;;;;;;;;;;6154743;23;20005;-56
2022/04/09 08:44:58;;;;;;;0.00;0.00;;;;;;;;;;6154781;23;20004;-56
2022/04/09 08:47:28;;;;;;;0.00;0.00;;;;;;;;;;6154812;23;19997;-56
2022/04/09 08:49:54;;;;;;;0.25;0.25;;;;;;;;;;6155086;23;20004;-56
2022/04/09 08:52:19;;;;;;;0.00;0.00;;;;;;;;;;6155113;23;19993;-56
2022/04/09 08:54:44;;;;;;;0.00;0.00;;;;;;;;;;6155076;23;20013;-58
2022/04/09 08:57:10;;;;;;;0.05;0.05;;;;;;;;;;6155638;23;20013;-57
2022/04/09 08:59:35;;;;;;;0.00;0.00;;;;;;;;;;6155128;23;20013;-55
2022/04/09 09:02:02;;;;;;;0.00;0.00;;;;;;;;;;6154906;23;20084;-55
2022/04/09 09:04:28;;;;;;;0.00;0.00;;;;;;;;;;6154525;23;20001;-56
2022/04/09 09:06:53;;;;;;;10.98;1.20;;;;;;;;;;6154799;23;20032;-53
2022/04/09 09:09:29;;;;;;;17.90;1.30;;;;;;;;;;6154894;23;20047;-55
2022/04/09 09:11:55;;;;;;;0.00;0.00;;;;;;;;;;6155569;23;20323;-54
2022/04/09 09:14:30;;;;;;;0.00;0.00;;;;;;;;;;6154932;23;19994;-54
2022/04/09 09:16:58;;;;;;;1.20;1.20;;;;;;;;;;6155301;23;20001;-54
2022/04/09 09:19:39;;;;;;;0.35;0.35;;;;;;;;;;6155078;23;20004;-53
2022/04/09 09:22:06;;;;;;;0.10;0.10;;;;;;;;;;6154687;23;20125;-57
2022/04/09 09:24:31;;;;;;;0.00;0.00;;;;;;;;;;6154957;23;20020;-57
2022/04/09 09:26:58;;;;;;;0.00;0.00;;;;;;;;;;6155279;23;19997;-57
2022/04/09 09:29:28;;;;;;;0.00;0.00;;;;;;;;;;6154797;23;20002;-57
2022/04/09 09:31:54;;;;;;;1.88;0.75;;;;;;;;;;6153843;23;20020;-57
2022/04/09 09:34:19;;;;;;;0.00;0.00;;;;;;;;;;6153183;23;20425;-56
2022/04/09 09:36:45;;;;;;;1.02;1.02;;;;;;;;;;6154545;23;20032;-57
2022/04/09 09:39:11;;;;;;;3.20;0.30;;;;;;;;;;6152929;23;20075;-57
2022/04/09 09:41:53;;;;;;;0.00;0.00;;;;;;;;;;6153896;23;20006;-58
2022/04/09 09:44:19;;;;;;;0.00;0.00;;;;;;;;;;6154573;23;20304;-57
2022/04/09 09:46:46;;;;;;;0.00;0.00;;;;;;;;;;6154256;23;20077;-56
2022/04/09 09:49:12;;;;;;;0.00;0.00;;;;;;;;;;6154982;23;20025;-57
2022/04/09 09:51:37;;;;;;;0.10;0.10;;;;;;;;;;6156246;23;19994;-57
2022/04/09 09:54:07;;;;;;;0.00;0.00;;;;;;;;;;6156640;23;20315;-58
2022/04/09 09:56:37;;;;;;;0.00;0.00;;;;;;;;;;6156250;23;20021;-58
2022/04/09 09:59:03;;;;;;;0.00;0.00;;;;;;;;;;6156214;23;20364;-58
2022/04/09 10:01:29;;;;;;;0.00;0.00;;;;;;;;;;6155426;23;20009;-58
2022/04/09 10:03:54;;;;;;;0.03;0.03;;;;;;;;;;6155439;23;20002;-58
2022/04/09 10:06:21;;;;;;;0.00;0.00;;;;;;;;;;6155305;23;20001;-58
2022/04/09 10:08:47;;;;;;;0.00;0.00;;;;;;;;;;6154794;23;19998;-58
2022/04/09 10:11:12;;;;;;;0.00;0.00;;;;;;;;;;6154824;23;20001;-58
2022/04/09 10:13:43;;;;;;;0.00;0.00;;;;;;;;;;6155393;23;20359;-58
2022/04/09 10:16:09;;;;;;;0.00;0.00;;;;;;;;;;6154791;23;19998;-55
2022/04/09 10:18:34;;;;;;;0.03;0.03;;;;;;;;;;6129745;23;20024;-57
2022/04/09 10:21:01;;;;;;;0.00;0.00;;;;;;;;;;6155701;23;20008;-56
2022/04/09 10:23:32;;;;;;;0.93;0.30;;;;;;;;;;6155546;23;20008;-57
2022/04/09 10:25:58;;;;;;;0.00;0.00;;;;;;;;;;6155988;23;19997;-58
2022/04/09 10:28:31;;;;;;;0.00;0.00;;;;;;;;;;6155633;23;20002;-59
2022/04/09 10:30:56;;;;;;;0.65;0.40;;;;;;;;;;6155577;23;20005;-57
2022/04/09 10:33:22;;;;;;;0.90;0.90;;;;;;;;;;6155960;23;19998;-59
2022/04/09 10:35:48;;;;;;;0.47;0.35;;;;;;;;;;6155798;23;20009;-58
2022/04/09 10:38:20;;;;;;;0.00;0.00;;;;;;;;;;6155240;23;20005;-60
2022/04/09 10:40:45;;;;;;;0.00;0.00;;;;;;;;;;6155292;23;20496;-58
2022/04/09 10:43:23;;;;;;;0.00;0.00;;;;;;;;;;6155343;23;20084;-60
2022/04/09 10:46:00;;;;;;;0.03;0.03;;;;;;;;;;6155259;23;20321;-59
2022/04/09 10:48:33;;;;;;;0.00;0.00;;;;;;;;;;6154126;23;20426;-60
2022/04/09 10:51:04;;;;;;;0.00;0.00;;;;;;;;;;6154234;23;20002;-61
2022/04/09 10:53:33;;;;;;;0.20;0.20;;;;;;;;;;6153258;23;20008;-60
2022/04/09 10:56:20;;;;;;;4.97;0.95;;;;;;;;;;6153638;23;20020;-60
2022/04/09 10:59:01;;;;;;;7.68;1.10;;;;;;;;;;6154256;23;20020;-60
2022/04/09 11:01:51;;;;;;;0.00;0.00;;;;;;;;;;6153327;23;20032;-60
2022/04/09 11:04:37;;;;;;;0.00;0.00;;;;;;;;;;6153825;23;20008;-61
2022/04/09 11:07:11;;;;;;;0.00;0.00;;;;;;;;;;6154174;23;20005;-60
2022/04/09 11:09:48;;;;;;;0.00;0.00;;;;;;;;;;6154139;23;20005;-60
2022/04/09 11:12:14;;;;;;;0.45;0.35;;;;;;;;;;6154023;23;20331;-61
2022/04/09 11:14:44;;;;;;;0.00;0.00;;;;;;;;;;6153922;23;20001;-60
2022/04/09 11:17:19;;;;;;;0.00;0.00;;;;;;;;;;6154121;23;20427;-60
2022/04/09 11:19:45;;;;;;;0.98;0.60;;;;;;;;;;6154230;23;20001;-60
2022/04/09 11:22:11;;;;;;;0.00;0.00;;;;;;;;;;6154100;23;20299;-60
2022/04/09 11:24:36;;;;;;;0.00;0.00;;;;;;;;;;6154181;23;20029;-61
2022/04/09 11:27:02;;;;;;;0.00;0.00;;;;;;;;;;6153915;23;19998;-60
2022/04/09 11:29:31;;;;;;;0.47;0.47;;;;;;;;;;6153531;23;20006;-61
2022/04/09 11:32:00;;;;;;;;;;;;;;;;;;6154075;23;19997;-61
2022/04/09 11:34:25;;;;;;;0.00;0.00;;;;;;;;;;6152648;23;19931;-61
2022/04/09 11:36:52;;;;;;;0.00;0.00;;;;;;;;;;6153314;23;20001;-61
2022/04/09 11:39:17;;;;;;;0.00;0.00;;;;;;;;;;6126588;23;20004;-61
2022/04/09 11:41:45;;;;;;;0.00;0.00;;;;;;;;;;6152562;23;20002;-60
2022/04/09 11:44:27;;;;;;;0.00;0.00;;;;;;;;;;6153409;23;20033;-61
2022/04/09 11:46:53;;;;;;;0.50;0.00;;;;;;;;;;6153614;23;20076;-61
2022/04/09 11:49:18;;;;;;;0.00;0.00;;;;;;;;;;6152865;23;20496;-61
2022/04/09 11:51:53;;;;;;;1.30;0.70;;;;;;;;;;6153481;23;20073;-61
2022/04/09 11:54:19;;;;;;;0.00;0.00;;;;;;;;;;6153194;23;20073;-60
2022/04/09 11:56:44;;;;;;;0.00;0.00;;;;;;;;;;6153510;23;20447;-60
2022/04/09 11:59:11;;;;;;;0.47;0.47;;;;;;;;;;6153222;23;20080;-60
2022/04/09 12:01:36;;;;;;;0.15;0.15;;;;;;;;;;6153367;23;20374;-59
2022/04/09 12:04:02;;;;;;;0.05;0.05;;;;;;;;;;6151953;23;20073;-59
2022/04/09 12:06:27;;;;;;;0.00;0.00;;;;;;;;;;6152598;23;20331;-59
2022/04/09 12:08:52;;;;;;;3.50;0.38;;;;;;;;;;6153033;23;19994;-61
2022/04/09 12:11:19;;;;;;;0.10;0.10;;;;;;;;;;6152284;23;19994;-61
2022/04/09 12:13:45;;;;;;;0.00;0.00;;;;;;;;;;6152882;23;20005;-61
2022/04/09 12:16:10;;;;;;;0.00;0.00;;;;;;;;;;6153222;23;20398;-61
2022/04/09 12:18:36;;;;;;;0.00;0.00;;;;;;;;;;6153616;23;20032;-61
2022/04/09 12:21:18;;;;;;;0.00;0.00;;;;;;;;;;6153484;23;20006;-61
2022/04/09 12:23:44;;;;;;;0.00;0.00;;;;;;;;;;6153245;23;20076;-61
2022/04/09 12:26:22;;;;;;;0.30;0.30;;;;;;;;;;6152619;23;20056;-60
2022/04/09 12:29:04;;;;;;;0.00;0.00;;;;;;;;;;6153279;23;20025;-60
2022/04/09 12:31:29;;;;;;;0.00;0.00;;;;;;;;;;6152316;23;20077;-60
2022/04/09 12:33:58;;;;;;;2.92;2.50;;;;;;;;;;6152806;23;20022;-61
2022/04/09 12:36:23;;;;;;;2.45;2.35;;;;;;;;;;6152795;23;19998;-60
2022/04/09 12:38:48;;;;;;;0.55;0.55;;;;;;;;;;6152996;23;20009;-61
2022/04/09 12:41:13;;;;;;;0.00;0.00;;;;;;;;;;6152783;23;20008;-59
2022/04/09 12:43:41;;;;;;;0.00;0.00;;;;;;;;;;6153385;23;20327;-60
2022/04/09 12:46:06;;;;;;;0.00;0.00;;;;;;;;;;6152959;23;20001;-59
2022/04/09 12:48:39;;;;;;;0.00;0.00;;;;;;;;;;6152934;23;20013;-59
2022/04/09 12:51:04;;;;;;;0.00;0.00;;;;;;;;;;6153054;23;19993;-59
2022/04/09 12:53:29;;;;;;;0.00;0.00;;;;;;;;;;6126587;23;20011;-60
2022/04/09 12:55:55;;;;;;;0.00;0.00;;;;;;;;;;6152605;23;20024;-61
2022/04/09 12:58:20;;;;;;;0.85;0.85;;;;;;;;;;6152679;23;19997;-59
2022/04/09 13:00:45;;;;;;;0.00;0.00;;;;;;;;;;6153100;23;20056;-59
2022/04/09 13:03:10;;;;;;;0.00;0.00;;;;;;;;;;6153224;23;20012;-60
2022/04/09 13:05:36;;;;;;;0.00;0.00;;;;;;;;;;6153089;23;20002;-60
2022/04/09 13:08:01;;;;;;;0.00;0.00;;;;;;;;;;6153555;23;20379;-59
2022/04/09 13:10:26;;;;;;;0.00;0.00;;;;;;;;;;6153384;23;19997;-59
2022/04/09 13:12:51;;;;;;;0.25;0.25;;;;;;;;;;6153016;23;20084;-60
2022/04/09 13:15:16;;;;;;;0.10;0.10;;;;;;;;;;6153741;23;19997;-59
2022/04/09 13:17:42;;;;;;;0.00;0.00;;;;;;;;;;6153806;23;20006;-59
2022/04/09 13:20:07;;;;;;;1.25;1.25;;;;;;;;;;6154086;23;19997;-60
2022/04/09 13:22:33;;;;;;;0.05;0.05;;;;;;;;;;6154567;23;20326;-59
2022/04/09 13:24:59;;;;;;;0.73;0.73;;;;;;;;;;6156265;23;20005;-60
2022/04/09 13:27:24;;;;;;;0.00;0.00;;;;;;;;;;6156561;23;19997;-59
2022/04/09 13:29:49;;;;;;;0.00;0.00;;;;;;;;;;6156875;23;20301;-60
2022/04/09 13:32:14;;;;;;;0.00;0.00;;;;;;;;;;6156598;23;19993;-60
2022/04/09 13:34:40;;;;;;;0.00;0.00;;;;;;;;;;6156851;23;20045;-58
2022/04/09 13:37:05;;;;;;;0.35;0.35;;;;;;;;;;6157000;23;20124;-60
2022/04/09 13:39:30;;;;;;;0.40;0.35;;;;;;;;;;6156977;23;20001;-60
2022/04/09 13:41:56;;;;;;;0.30;0.30;;;;;;;;;;6156477;23;19997;-60
2022/04/09 13:44:21;;;;;;;20.58;0.85;;;;;;;;;;6156063;23;20001;-59
2022/04/09 13:46:46;;;;;;;0.00;0.00;;;;;;;;;;6156265;23;19997;-60
2022/04/09 13:49:12;;;;;;;0.00;0.00;;;;;;;;;;6156436;23;19998;-59
2022/04/09 13:51:37;;;;;;;0.00;0.00;;;;;;;;;;6156066;23;19993;-60
2022/04/09 13:54:02;;;;;;;4.18;0.43;;;;;;;;;;6156233;23;19997;-60
2022/04/09 13:56:28;;;;;;;0.65;0.65;;;;;;;;;;6156249;23;20300;-60
2022/04/09 13:58:53;;;;;;;1.17;1.17;;;;;;;;;;6156020;23;20005;-60
2022/04/09 14:01:18;;;;;;;0.03;0.03;;;;;;;;;;6156241;23;20384;-59
2022/04/09 14:03:43;;;;;;;0.20;0.20;;;;;;;;;;6156271;23;20427;-60
2022/04/09 14:06:09;;;;;;;0.10;0.10;;;;;;;;;;6156824;23;20012;-59
2022/04/09 14:08:34;;;;;;;0.00;0.00;;;;;;;;;;6156501;23;19994;-60
2022/04/09 14:11:00;;;;;;;0.52;0.52;;;;;;;;;;6155943;23;19998;-59
2022/04/09 14:13:25;;;;;;;0.00;0.00;;;;;;;;;;6156495;23;20415;-58
2022/04/09 14:15:50;;;;;;;0.00;0.00;;;;;;;;;;6156095;23;20005;-60
2022/04/09 14:18:16;;;;;;;4.28;0.65;;;;;;;;;;6155313;23;20002;-62
2022/04/09 14:20:42;;;;;;;0.10;0.10;;;;;;;;;;6157056;23;20006;-60
2022/04/09 14:23:07;;;;;;;0.15;0.15;;;;;;;;;;6156407;23;20101;-61
2022/04/09 14:25:32;;;;;;;3.90;1.92;;;;;;;;;;6156606;23;20080;-60
2022/04/09 14:27:58;;;;;;;0.82;0.82;;;;;;;;;;6156262;23;20009;-59
2022/04/09 14:30:27;;;;;;;0.00;0.00;;;;;;;;;;6157573;23;20001;-60
2022/04/09 14:32:52;;;;;;;0.08;0.08;;;;;;;;;;6157132;23;19998;-61
2022/04/09 14:35:17;;;;;;;0.00;0.00;;;;;;;;;;6154128;23;20464;-60
2022/04/09 14:37:47;;;;;;;0.05;0.05;;;;;;;;;;6152768;23;19993;-59